createdAt,value
2018-12-20T00:00:48.363Z,1006.08
2018-12-20T00:01:48.390Z,1006.08
2018-12-20T00:02:49.219Z,1006.10
2018-12-20T00:03:48.449Z,1006.09
2018-12-20T00:04:48.712Z,1006.10
2018-12-20T00:05:48.426Z,1006.08
2018-12-20T00:06:48.345Z,1006.10
2018-12-20T00:07:48.289Z,1006.10
2018-12-20T00:08:48.297Z,1006.06
2018-12-20T00:09:48.314Z,1006.08
2018-12-20T00:10:48.249Z,1006.10
2018-12-20T00:11:49.333Z,1006.10
2018-12-20T00:12:49.273Z,1006.12
2018-12-20T00:13:48.223Z,1006.07
2018-12-20T00:14:48.260Z,1006.12
2018-12-20T00:15:49.181Z,1006.04
2018-12-20T00:16:49.282Z,1006.17
2018-12-20T00:17:48.270Z,1006.16
2018-12-20T00:18:48.273Z,1006.13
2018-12-20T00:19:48.185Z,1006.17
2018-12-20T00:20:48.242Z,1006.15
2018-12-20T00:21:48.148Z,1006.18
2018-12-20T00:22:48.129Z,1006.12
2018-12-20T00:23:48.703Z,1006.17
2018-12-20T00:24:48.197Z,1006.19
2018-12-20T00:25:48.106Z,1006.18
2018-12-20T00:26:48.685Z,1006.22
2018-12-20T00:27:48.096Z,1006.17
2018-12-20T00:28:49.188Z,1006.17
2018-12-20T00:29:48.253Z,1006.12
2018-12-20T00:30:48.036Z,1006.14
2018-12-20T00:31:48.687Z,1006.20
2018-12-20T00:32:48.795Z,1006.12
2018-12-20T00:33:48.872Z,1006.14
2018-12-20T00:34:48.241Z,1006.14
2018-12-20T00:35:48.038Z,1006.12
2018-12-20T00:36:48.137Z,1006.15
2018-12-20T00:37:47.944Z,1006.10
2018-12-20T00:38:48.688Z,1006.18
2018-12-20T00:39:47.961Z,1006.12
2018-12-20T00:40:48.697Z,1006.16
2018-12-20T00:41:48.790Z,1006.12
2018-12-20T00:42:47.981Z,1006.10
2018-12-20T00:43:48.000Z,1006.10
2018-12-20T00:44:47.924Z,1006.15
2018-12-20T00:45:48.737Z,1006.16
2018-12-20T00:46:47.876Z,1006.14
2018-12-20T00:47:47.849Z,1006.09
2018-12-20T00:48:48.804Z,1006.09
2018-12-20T00:49:48.306Z,1006.07
2018-12-20T00:50:47.961Z,1006.08
2018-12-20T00:51:48.675Z,1005.99
2018-12-20T00:52:47.782Z,1006.06
2018-12-20T00:53:47.769Z,1006.13
2018-12-20T00:54:47.807Z,1006.10
2018-12-20T00:55:47.849Z,1006.10
2018-12-20T00:56:48.823Z,1006.12
2018-12-20T00:57:47.736Z,1006.06
2018-12-20T00:58:47.849Z,1006.11
2018-12-20T00:59:48.205Z,1006.07
2018-12-20T01:00:47.778Z,1006.12
2018-12-20T01:01:47.749Z,1006.15
2018-12-20T01:02:55.046Z,1006.14
2018-12-20T01:03:47.806Z,1006.13
2018-12-20T01:04:47.693Z,1006.03
2018-12-20T01:05:48.234Z,1006.12
2018-12-20T01:06:47.636Z,1006.05
2018-12-20T01:07:47.649Z,1006.13
2018-12-20T01:08:47.698Z,1006.16
2018-12-20T01:09:47.799Z,1006.11
2018-12-20T01:10:47.650Z,1006.11
2018-12-20T01:11:47.615Z,1006.14
2018-12-20T01:12:47.653Z,1006.10
2018-12-20T01:13:47.573Z,1006.10
2018-12-20T01:14:47.642Z,1006.08
2018-12-20T01:15:47.590Z,1006.05
2018-12-20T01:16:48.191Z,1006.11
2018-12-20T01:17:47.541Z,1005.98
2018-12-20T01:18:47.516Z,1006.06
2018-12-20T01:19:47.848Z,1006.05
2018-12-20T01:20:47.621Z,1006.03
2018-12-20T01:21:47.484Z,1006.08
2018-12-20T01:22:47.462Z,1006.10
2018-12-20T01:23:47.606Z,1006.05
2018-12-20T01:24:47.717Z,1006.07
2018-12-20T01:25:48.238Z,1006.10
2018-12-20T01:26:48.203Z,1006.12
2018-12-20T01:27:48.256Z,1006.11
2018-12-20T01:28:47.493Z,1006.09
2018-12-20T01:29:47.431Z,1006.11
2018-12-20T01:30:47.415Z,1006.05
2018-12-20T01:31:47.390Z,1006.06
2018-12-20T01:32:48.359Z,1006.07
2018-12-20T01:33:47.427Z,1006.04
2018-12-20T01:34:47.403Z,1006.05
2018-12-20T01:35:47.351Z,1006.07
2018-12-20T01:36:48.367Z,1006.12
2018-12-20T01:37:47.291Z,1006.07
2018-12-20T01:38:47.276Z,1006.01
2018-12-20T01:39:47.348Z,1006.08
2018-12-20T01:40:47.433Z,1006.10
2018-12-20T01:41:47.275Z,1006.08
2018-12-20T01:42:47.394Z,1006.13
2018-12-20T01:43:47.335Z,1006.08
2018-12-20T01:44:53.497Z,1006.07
2018-12-20T01:45:47.245Z,1006.11
2018-12-20T01:46:47.187Z,1006.09
2018-12-20T01:47:47.202Z,1006.05
2018-12-20T01:48:47.173Z,1006.08
2018-12-20T01:49:47.156Z,1006.06
2018-12-20T01:50:47.230Z,1006.06
2018-12-20T01:51:47.729Z,1006.06
2018-12-20T01:52:47.287Z,1006.04
2018-12-20T01:53:47.149Z,1006.14
2018-12-20T01:54:47.125Z,1006.05
2018-12-20T01:55:47.099Z,1006.07
2018-12-20T01:56:47.120Z,1006.02
2018-12-20T01:57:47.858Z,1006.02
2018-12-20T01:58:47.683Z,1006.11
2018-12-20T01:59:47.042Z,1006.11
2018-12-20T02:00:47.238Z,1006.02
2018-12-20T02:01:47.039Z,1006.06
2018-12-20T02:02:47.019Z,1006.09
2018-12-20T02:03:47.674Z,1006.08
2018-12-20T02:04:47.703Z,1006.09
2018-12-20T02:05:47.006Z,1006.05
2018-12-20T02:06:47.165Z,1006.08
2018-12-20T02:07:47.088Z,1006.08
2018-12-20T02:08:46.945Z,1006.09
2018-12-20T02:09:46.934Z,1006.08
2018-12-20T02:10:47.221Z,1006.10
2018-12-20T02:11:46.933Z,1006.13
2018-12-20T02:12:46.911Z,1006.14
2018-12-20T02:13:46.911Z,1006.14
2018-12-20T02:14:46.881Z,1006.18
2018-12-20T02:15:47.369Z,1006.10
2018-12-20T02:16:47.021Z,1006.17
2018-12-20T02:17:47.010Z,1006.13
2018-12-20T02:18:46.885Z,1006.15
2018-12-20T02:19:46.868Z,1006.08
2018-12-20T02:20:46.970Z,1006.09
2018-12-20T02:21:47.777Z,1006.04
2018-12-20T02:22:46.785Z,1006.08
2018-12-20T02:23:46.985Z,1006.08
2018-12-20T02:24:47.807Z,1006.07
2018-12-20T02:25:46.820Z,1006.06
2018-12-20T02:26:47.681Z,1006.02
2018-12-20T02:27:46.730Z,1006.12
2018-12-20T02:28:47.786Z,1006.06
2018-12-20T02:29:46.796Z,1006.03
2018-12-20T02:30:46.756Z,1006.07
2018-12-20T02:31:47.695Z,1006.04
2018-12-20T02:32:46.681Z,1006.02
2018-12-20T02:33:47.354Z,1006.05
2018-12-20T02:34:46.823Z,1006.04
2018-12-20T02:35:46.807Z,1006.02
2018-12-20T02:36:47.280Z,1006.00
2018-12-20T02:37:46.632Z,1006.03
2018-12-20T02:38:47.204Z,1005.99
2018-12-20T02:39:46.894Z,1006.01
2018-12-20T02:40:46.612Z,1006.02
2018-12-20T02:41:46.606Z,1005.93
2018-12-20T02:42:46.666Z,1005.99
2018-12-20T02:43:47.520Z,1005.97
2018-12-20T02:44:46.619Z,1005.97
2018-12-20T02:45:46.580Z,1005.94
2018-12-20T02:46:47.265Z,1005.97
2018-12-20T02:47:47.368Z,1005.98
2018-12-20T02:48:46.505Z,1005.97
2018-12-20T02:49:46.515Z,1005.95
2018-12-20T02:50:46.657Z,1005.91
2018-12-20T02:51:46.718Z,1005.91
2018-12-20T02:52:46.510Z,1005.92
2018-12-20T02:53:46.546Z,1005.92
2018-12-20T02:54:46.685Z,1005.90
2018-12-20T02:55:46.462Z,1005.87
2018-12-20T02:56:46.473Z,1005.89
2018-12-20T02:57:46.404Z,1005.84
2018-12-20T02:58:46.431Z,1005.82
2018-12-20T02:59:46.415Z,1005.79
2018-12-20T03:00:46.637Z,1005.79
2018-12-20T03:01:47.188Z,1005.75
2018-12-20T03:02:46.386Z,1005.78
2018-12-20T03:03:47.270Z,1005.71
2018-12-20T03:04:46.367Z,1005.77
2018-12-20T03:05:46.838Z,1005.62
2018-12-20T03:06:47.228Z,1005.75
2018-12-20T03:07:46.405Z,1005.69
2018-12-20T03:08:46.336Z,1005.71
2018-12-20T03:09:46.515Z,1005.72
2018-12-20T03:10:46.595Z,1005.67
2018-12-20T03:11:46.284Z,1005.68
2018-12-20T03:12:47.393Z,1005.68
2018-12-20T03:13:46.399Z,1005.65
2018-12-20T03:14:46.380Z,1005.65
2018-12-20T03:15:46.515Z,1005.67
2018-12-20T03:16:46.321Z,1005.60
2018-12-20T03:17:46.262Z,1005.66
2018-12-20T03:18:46.199Z,1005.64
2018-12-20T03:19:46.274Z,1005.65
2018-12-20T03:20:46.305Z,1005.60
2018-12-20T03:21:46.686Z,1005.63
2018-12-20T03:22:46.155Z,1005.65
2018-12-20T03:23:46.122Z,1005.58
2018-12-20T03:24:46.111Z,1005.53
2018-12-20T03:25:46.153Z,1005.54
2018-12-20T03:26:46.090Z,1005.58
2018-12-20T03:27:46.801Z,1005.59
2018-12-20T03:28:46.066Z,1005.62
2018-12-20T03:29:46.695Z,1005.69
2018-12-20T03:30:46.203Z,1005.54
2018-12-20T03:31:46.030Z,1005.62
2018-12-20T03:32:46.479Z,1005.59
2018-12-20T03:33:46.092Z,1005.61
2018-12-20T03:34:46.721Z,1005.63
2018-12-20T03:35:46.269Z,1005.61
2018-12-20T03:36:46.132Z,1005.59
2018-12-20T03:37:46.047Z,1005.60
2018-12-20T03:38:46.084Z,1005.61
2018-12-20T03:39:46.074Z,1005.59
2018-12-20T03:40:46.871Z,1005.59
2018-12-20T03:41:46.416Z,1005.61
2018-12-20T03:42:46.044Z,1005.55
2018-12-20T03:43:46.807Z,1005.56
2018-12-20T03:44:46.089Z,1005.61
2018-12-20T03:45:45.875Z,1005.53
2018-12-20T03:46:46.413Z,1005.56
2018-12-20T03:47:45.892Z,1005.57
2018-12-20T03:48:46.001Z,1005.55
2018-12-20T03:49:46.071Z,1005.58
2018-12-20T03:50:45.857Z,1005.56
2018-12-20T03:51:45.919Z,1005.55
2018-12-20T03:52:46.784Z,1005.55
2018-12-20T03:53:46.684Z,1005.56
2018-12-20T03:54:45.783Z,1005.62
2018-12-20T03:55:45.871Z,1005.58
2018-12-20T03:56:45.971Z,1005.59
2018-12-20T03:57:45.746Z,1005.60
2018-12-20T03:58:45.788Z,1005.64
2018-12-20T03:59:45.770Z,1005.63
2018-12-20T04:00:46.916Z,1005.61
2018-12-20T04:01:45.734Z,1005.65
2018-12-20T04:02:46.380Z,1005.70
2018-12-20T04:03:46.205Z,1005.69
2018-12-20T04:04:45.711Z,1005.68
2018-12-20T04:05:45.766Z,1005.64
2018-12-20T04:06:45.715Z,1005.62
2018-12-20T04:07:45.649Z,1005.64
2018-12-20T04:08:45.625Z,1005.70
2018-12-20T04:09:45.634Z,1005.64
2018-12-20T04:10:46.269Z,1005.64
2018-12-20T04:11:45.715Z,1005.66
2018-12-20T04:12:45.587Z,1005.68
2018-12-20T04:13:45.572Z,1005.62
2018-12-20T04:14:46.231Z,1005.59
2018-12-20T04:15:45.718Z,1005.62
2018-12-20T04:16:45.762Z,1005.65
2018-12-20T04:17:45.619Z,1005.63
2018-12-20T04:18:45.663Z,1005.61
2018-12-20T04:19:46.185Z,1005.69
2018-12-20T04:20:45.656Z,1005.63
2018-12-20T04:21:45.586Z,1005.67
2018-12-20T04:22:45.465Z,1005.59
2018-12-20T04:23:45.700Z,1005.64
2018-12-20T04:24:46.342Z,1005.58
2018-12-20T04:25:46.193Z,1005.60
2018-12-20T04:26:45.448Z,1005.60
2018-12-20T04:27:45.455Z,1005.59
2018-12-20T04:28:45.572Z,1005.61
2018-12-20T04:29:45.439Z,1005.67
2018-12-20T04:30:45.497Z,1005.66
2018-12-20T04:31:45.431Z,1005.66
2018-12-20T04:32:45.618Z,1005.65
2018-12-20T04:33:45.468Z,1005.65
2018-12-20T04:34:45.358Z,1005.66
2018-12-20T04:35:45.345Z,1005.68
2018-12-20T04:36:45.376Z,1005.62
2018-12-20T04:37:46.212Z,1005.68
2018-12-20T04:38:45.376Z,1005.63
2018-12-20T04:39:45.286Z,1005.61
2018-12-20T04:40:45.406Z,1005.66
2018-12-20T04:41:45.743Z,1005.69
2018-12-20T04:42:45.320Z,1005.69
2018-12-20T04:43:45.449Z,1005.70
2018-12-20T04:44:45.275Z,1005.65
2018-12-20T04:45:46.786Z,1005.66
2018-12-20T04:46:45.759Z,1005.72
2018-12-20T04:47:45.305Z,1005.67
2018-12-20T04:48:45.709Z,1005.72
2018-12-20T04:49:45.178Z,1005.70
2018-12-20T04:50:45.206Z,1005.71
2018-12-20T04:51:45.187Z,1005.65
2018-12-20T04:52:45.287Z,1005.72
2018-12-20T04:53:46.059Z,1005.85
2018-12-20T04:54:45.122Z,1005.84
2018-12-20T04:55:45.144Z,1005.85
2018-12-20T04:56:45.284Z,1005.77
2018-12-20T04:57:45.106Z,1005.76
2018-12-20T04:58:45.827Z,1005.76
2018-12-20T04:59:45.717Z,1005.72
2018-12-20T05:00:45.697Z,1005.71
2018-12-20T05:01:45.295Z,1005.74
2018-12-20T05:02:45.025Z,1005.77
2018-12-20T05:03:45.313Z,1005.83
2018-12-20T05:04:45.692Z,1005.80
2018-12-20T05:05:45.745Z,1005.80
2018-12-20T05:06:45.460Z,1005.81
2018-12-20T05:07:45.075Z,1005.76
2018-12-20T05:08:45.056Z,1005.75
2018-12-20T05:09:44.953Z,1005.76
2018-12-20T05:10:45.735Z,1005.79
2018-12-20T05:11:44.975Z,1005.82
2018-12-20T05:12:45.177Z,1005.89
2018-12-20T05:13:44.919Z,1005.83
2018-12-20T05:14:44.909Z,1005.83
2018-12-20T05:15:45.206Z,1005.78
2018-12-20T05:16:44.907Z,1005.81
2018-12-20T05:17:45.000Z,1005.83
2018-12-20T05:18:45.017Z,1005.75
2018-12-20T05:19:44.973Z,1005.80
2018-12-20T05:20:45.692Z,1005.86
2018-12-20T05:21:44.863Z,1005.85
2018-12-20T05:22:45.700Z,1005.89
2018-12-20T05:23:44.863Z,1005.88
2018-12-20T05:24:44.802Z,1005.84
2018-12-20T05:25:45.065Z,1005.87
2018-12-20T05:26:45.142Z,1005.86
2018-12-20T05:27:45.807Z,1005.89
2018-12-20T05:28:45.001Z,1005.88
2018-12-20T05:29:44.728Z,1005.86
2018-12-20T05:30:45.703Z,1005.86
2018-12-20T05:31:44.885Z,1005.87
2018-12-20T05:32:44.802Z,1005.83
2018-12-20T05:33:44.699Z,1005.90
2018-12-20T05:34:44.708Z,1005.91
2018-12-20T05:35:44.872Z,1005.93
2018-12-20T05:36:44.764Z,1005.98
2018-12-20T05:37:44.859Z,1005.95
2018-12-20T05:38:44.761Z,1005.91
2018-12-20T05:39:44.655Z,1005.97
2018-12-20T05:40:45.381Z,1005.94
2018-12-20T05:41:44.847Z,1005.96
2018-12-20T05:42:44.632Z,1005.90
2018-12-20T05:43:44.959Z,1005.91
2018-12-20T05:44:47.648Z,1005.92
2018-12-20T05:45:44.778Z,1005.98
2018-12-20T05:46:44.731Z,1005.95
2018-12-20T05:47:44.678Z,1005.85
2018-12-20T05:48:44.578Z,1005.95
2018-12-20T05:49:45.434Z,1005.94
2018-12-20T05:50:44.529Z,1005.97
2018-12-20T05:51:44.585Z,1005.94
2018-12-20T05:52:44.711Z,1005.97
2018-12-20T05:53:44.528Z,1005.91
2018-12-20T05:54:44.517Z,1005.97
2018-12-20T05:55:44.450Z,1005.99
2018-12-20T05:56:44.439Z,1005.97
2018-12-20T05:57:44.729Z,1005.96
2018-12-20T05:58:44.619Z,1006.01
2018-12-20T05:59:44.405Z,1006.04
2018-12-20T06:00:45.239Z,1006.04
2018-12-20T06:01:44.439Z,1006.05
2018-12-20T06:02:44.684Z,1006.04
2018-12-20T06:03:44.354Z,1006.11
2018-12-20T06:04:44.581Z,1006.10
2018-12-20T06:05:44.573Z,1006.08
2018-12-20T06:06:44.393Z,1006.09
2018-12-20T06:07:44.785Z,1006.09
2018-12-20T06:08:44.312Z,1006.04
2018-12-20T06:09:44.292Z,1006.10
2018-12-20T06:10:44.277Z,1006.15
2018-12-20T06:11:44.518Z,1006.17
2018-12-20T06:12:44.308Z,1006.14
2018-12-20T06:13:44.284Z,1006.15
2018-12-20T06:14:44.422Z,1006.19
2018-12-20T06:15:44.393Z,1006.20
2018-12-20T06:16:44.255Z,1006.26
2018-12-20T06:17:44.227Z,1006.25
2018-12-20T06:18:44.388Z,1006.20
2018-12-20T06:19:44.731Z,1006.18
2018-12-20T06:20:44.196Z,1006.23
2018-12-20T06:21:44.162Z,1006.26
2018-12-20T06:22:44.176Z,1006.29
2018-12-20T06:23:44.143Z,1006.25
2018-12-20T06:24:44.133Z,1006.26
2018-12-20T06:25:44.120Z,1006.23
2018-12-20T06:26:44.204Z,1006.16
2018-12-20T06:27:44.109Z,1006.24
2018-12-20T06:28:44.081Z,1006.20
2018-12-20T06:29:44.734Z,1006.26
2018-12-20T06:30:44.099Z,1006.22
2018-12-20T06:31:44.051Z,1006.25
2018-12-20T06:32:44.058Z,1006.27
2018-12-20T06:33:44.023Z,1006.27
2018-12-20T06:34:44.029Z,1006.30
2018-12-20T06:35:44.703Z,1006.25
2018-12-20T06:36:44.716Z,1006.25
2018-12-20T06:37:44.238Z,1006.29
2018-12-20T06:38:43.965Z,1006.26
2018-12-20T06:39:43.978Z,1006.29
2018-12-20T06:40:43.951Z,1006.23
2018-12-20T06:41:43.944Z,1006.30
2018-12-20T06:42:43.946Z,1006.25
2018-12-20T06:43:43.924Z,1006.25
2018-12-20T06:44:43.922Z,1006.26
2018-12-20T06:45:43.926Z,1006.32
2018-12-20T06:46:43.923Z,1006.26
2018-12-20T06:47:44.226Z,1006.24
2018-12-20T06:48:43.856Z,1006.29
2018-12-20T06:49:43.870Z,1006.33
2018-12-20T06:50:43.885Z,1006.28
2018-12-20T06:51:43.822Z,1006.21
2018-12-20T06:52:43.889Z,1006.29
2018-12-20T06:53:43.856Z,1006.24
2018-12-20T06:54:43.816Z,1006.26
2018-12-20T06:55:43.780Z,1006.27
2018-12-20T06:56:43.778Z,1006.28
2018-12-20T06:57:44.348Z,1006.29
2018-12-20T06:58:43.763Z,1006.29
2018-12-20T06:59:44.708Z,1006.28
2018-12-20T07:00:44.710Z,1006.29
2018-12-20T07:01:43.730Z,1006.20
2018-12-20T07:02:43.799Z,1006.26
2018-12-20T07:03:43.719Z,1006.30
2018-12-20T07:04:43.705Z,1006.31
2018-12-20T07:05:43.684Z,1006.28
2018-12-20T07:06:43.674Z,1006.29
2018-12-20T07:07:43.676Z,1006.32
2018-12-20T07:08:43.668Z,1006.27
2018-12-20T07:09:43.696Z,1006.32
2018-12-20T07:10:43.629Z,1006.33
2018-12-20T07:11:43.618Z,1006.29
2018-12-20T07:12:43.644Z,1006.33
2018-12-20T07:13:43.583Z,1006.33
2018-12-20T07:14:43.572Z,1006.29
2018-12-20T07:15:43.568Z,1006.36
2018-12-20T07:16:43.565Z,1006.34
2018-12-20T07:17:43.728Z,1006.30
2018-12-20T07:18:43.565Z,1006.37
2018-12-20T07:19:43.516Z,1006.38
2018-12-20T07:20:43.509Z,1006.35
2018-12-20T07:21:43.496Z,1006.39
2018-12-20T07:22:43.511Z,1006.36
2018-12-20T07:23:43.504Z,1006.30
2018-12-20T07:24:43.480Z,1006.31
2018-12-20T07:25:44.201Z,1006.35
2018-12-20T07:26:43.451Z,1006.33
2018-12-20T07:27:43.455Z,1006.37
2018-12-20T07:28:43.483Z,1006.33
2018-12-20T07:29:44.246Z,1006.36
2018-12-20T07:30:43.405Z,1006.34
2018-12-20T07:31:43.407Z,1006.41
2018-12-20T07:32:43.411Z,1006.33
2018-12-20T07:33:43.410Z,1006.34
2018-12-20T07:34:47.861Z,1006.33
2018-12-20T07:35:43.350Z,1006.36
2018-12-20T07:36:43.338Z,1006.37
2018-12-20T07:37:43.353Z,1006.36
2018-12-20T07:38:43.327Z,1006.34
2018-12-20T07:39:43.301Z,1006.41
2018-12-20T07:40:43.345Z,1006.40
2018-12-20T07:41:43.285Z,1006.44
2018-12-20T07:42:43.288Z,1006.45
2018-12-20T07:43:43.256Z,1006.42
2018-12-20T07:44:43.268Z,1006.40
2018-12-20T07:45:43.233Z,1006.42
2018-12-20T07:46:43.278Z,1006.41
2018-12-20T07:47:43.717Z,1006.49
2018-12-20T07:48:43.203Z,1006.49
2018-12-20T07:49:43.203Z,1006.46
2018-12-20T07:50:43.191Z,1006.50
2018-12-20T07:51:43.166Z,1006.48
2018-12-20T07:52:43.224Z,1006.46
2018-12-20T07:53:43.164Z,1006.44
2018-12-20T07:54:43.713Z,1006.48
2018-12-20T07:55:43.130Z,1006.43
2018-12-20T07:56:43.107Z,1006.47
2018-12-20T07:57:43.114Z,1006.44
2018-12-20T07:58:43.206Z,1006.48
2018-12-20T07:59:43.696Z,1006.44
2018-12-20T08:00:43.074Z,1006.50
2018-12-20T08:01:43.077Z,1006.44
2018-12-20T08:02:43.085Z,1006.43
2018-12-20T08:03:43.057Z,1006.49
2018-12-20T08:04:43.022Z,1006.46
2018-12-20T08:05:43.839Z,1006.49
2018-12-20T08:06:43.000Z,1006.53
2018-12-20T08:07:42.995Z,1006.48
2018-12-20T08:08:43.039Z,1006.53
2018-12-20T08:09:42.992Z,1006.53
2018-12-20T08:10:42.958Z,1006.54
2018-12-20T08:11:43.706Z,1006.46
2018-12-20T08:12:42.988Z,1006.47
2018-12-20T08:13:42.969Z,1006.53
2018-12-20T08:14:42.947Z,1006.50
2018-12-20T08:15:42.901Z,1006.58
2018-12-20T08:16:46.101Z,1006.58
2018-12-20T08:17:43.706Z,1006.54
2018-12-20T08:18:42.976Z,1006.53
2018-12-20T08:19:42.859Z,1006.54
2018-12-20T08:20:42.849Z,1006.59
2018-12-20T08:21:43.718Z,1006.58
2018-12-20T08:22:42.837Z,1006.55
2018-12-20T08:23:42.841Z,1006.56
2018-12-20T08:24:42.820Z,1006.59
2018-12-20T08:25:42.801Z,1006.60
2018-12-20T08:26:42.779Z,1006.62
2018-12-20T08:27:42.778Z,1006.61
2018-12-20T08:28:42.781Z,1006.64
2018-12-20T08:29:42.747Z,1006.66
2018-12-20T08:30:42.738Z,1006.66
2018-12-20T08:31:43.700Z,1006.69
2018-12-20T08:32:43.706Z,1006.80
2018-12-20T08:33:43.244Z,1006.76
2018-12-20T08:34:43.207Z,1006.72
2018-12-20T08:35:44.027Z,1006.72
2018-12-20T08:36:42.681Z,1006.70
2018-12-20T08:37:43.231Z,1006.76
2018-12-20T08:38:42.664Z,1006.77
2018-12-20T08:39:42.651Z,1006.69
2018-12-20T08:40:43.214Z,1006.74
2018-12-20T08:41:43.226Z,1006.80
2018-12-20T08:42:42.641Z,1006.85
2018-12-20T08:43:42.605Z,1006.87
2018-12-20T08:44:42.584Z,1006.89
2018-12-20T08:45:43.210Z,1006.88
2018-12-20T08:46:42.559Z,1006.87
2018-12-20T08:47:42.546Z,1006.94
2018-12-20T08:48:42.554Z,1006.89
2018-12-20T08:49:42.526Z,1006.87
2018-12-20T08:50:42.518Z,1006.93
2018-12-20T08:51:48.992Z,1006.97
2018-12-20T08:52:42.527Z,1006.93
2018-12-20T08:53:42.555Z,1006.93
2018-12-20T08:54:42.471Z,1006.97
2018-12-20T08:55:42.471Z,1006.96
2018-12-20T08:56:43.213Z,1006.93
2018-12-20T08:57:43.201Z,1006.91
2018-12-20T08:58:42.452Z,1006.92
2018-12-20T08:59:42.414Z,1006.91
2018-12-20T09:00:42.405Z,1006.98
2018-12-20T09:01:43.222Z,1006.90
2018-12-20T09:02:42.386Z,1006.91
2018-12-20T09:03:43.249Z,1006.97
2018-12-20T09:04:43.198Z,1006.92
2018-12-20T09:05:43.217Z,1006.93
2018-12-20T09:06:42.343Z,1006.99
2018-12-20T09:07:42.335Z,1007.01
2018-12-20T09:08:42.724Z,1006.96
2018-12-20T09:09:43.262Z,1007.04
2018-12-20T09:10:42.295Z,1006.97
2018-12-20T09:11:42.284Z,1006.99
2018-12-20T09:12:42.270Z,1006.99
2018-12-20T09:13:42.294Z,1006.97
2018-12-20T09:14:42.298Z,1007.04
2018-12-20T09:15:43.215Z,1007.03
2018-12-20T09:16:42.232Z,1006.98
2018-12-20T09:17:42.226Z,1007.08
2018-12-20T09:18:42.219Z,1007.02
2018-12-20T09:19:42.767Z,1007.04
2018-12-20T09:20:42.183Z,1007.02
2018-12-20T09:21:42.701Z,1007.02
2018-12-20T09:22:42.186Z,1007.10
2018-12-20T09:23:42.212Z,1007.04
2018-12-20T09:24:42.730Z,1007.05
2018-12-20T09:25:42.708Z,1007.03
2018-12-20T09:26:42.122Z,1007.05
2018-12-20T09:27:42.814Z,1007.03
2018-12-20T09:28:42.233Z,1007.04
2018-12-20T09:29:42.805Z,1007.11
2018-12-20T09:30:42.074Z,1007.08
2018-12-20T09:31:42.065Z,1007.07
2018-12-20T09:32:42.704Z,1007.07
2018-12-20T09:33:42.245Z,1007.07
2018-12-20T09:34:42.709Z,1007.10
2018-12-20T09:35:42.706Z,1007.10
2018-12-20T09:36:42.715Z,1007.05
2018-12-20T09:37:42.709Z,1007.06
2018-12-20T09:38:42.729Z,1007.04
2018-12-20T09:39:42.705Z,1007.03
2018-12-20T09:40:42.705Z,1007.07
2018-12-20T09:41:41.975Z,1007.06
2018-12-20T09:42:41.941Z,1007.05
2018-12-20T09:43:42.728Z,1006.99
2018-12-20T09:44:41.920Z,1007.01
2018-12-20T09:45:41.930Z,1007.05
2018-12-20T09:46:42.720Z,1007.02
2018-12-20T09:47:41.890Z,1007.03
2018-12-20T09:48:43.785Z,1007.04
2018-12-20T09:49:42.731Z,1006.98
2018-12-20T09:50:41.878Z,1006.98
2018-12-20T09:51:42.753Z,1006.99
2018-12-20T09:52:41.843Z,1006.99
2018-12-20T09:53:42.760Z,1006.98
2018-12-20T09:54:42.707Z,1007.02
2018-12-20T09:55:42.768Z,1007.03
2018-12-20T09:56:41.788Z,1007.02
2018-12-20T09:57:41.775Z,1007.04
2018-12-20T09:58:42.814Z,1007.01
2018-12-20T09:59:42.234Z,1006.97
2018-12-20T10:00:41.877Z,1007.03
2018-12-20T10:01:41.731Z,1007.00
2018-12-20T10:02:42.720Z,1006.98
2018-12-20T10:03:42.722Z,1007.01
2018-12-20T10:04:42.231Z,1007.00
2018-12-20T10:05:41.774Z,1007.02
2018-12-20T10:06:42.217Z,1007.04
2018-12-20T10:07:42.211Z,1007.04
2018-12-20T10:08:41.720Z,1007.00
2018-12-20T10:09:42.251Z,1007.03
2018-12-20T10:10:42.221Z,1007.00
2018-12-20T10:11:42.365Z,1007.01
2018-12-20T10:12:42.251Z,1006.96
2018-12-20T10:13:41.743Z,1006.95
2018-12-20T10:14:42.232Z,1006.95
2018-12-20T10:15:42.226Z,1006.95
2018-12-20T10:16:41.616Z,1007.00
2018-12-20T10:17:41.565Z,1007.00
2018-12-20T10:18:41.708Z,1006.95
2018-12-20T10:19:42.237Z,1006.98
2018-12-20T10:20:42.230Z,1007.01
2018-12-20T10:21:41.810Z,1006.97
2018-12-20T10:22:42.214Z,1006.96
2018-12-20T10:23:42.236Z,1006.89
2018-12-20T10:24:42.276Z,1006.91
2018-12-20T10:25:42.218Z,1006.97
2018-12-20T10:26:42.210Z,1006.94
2018-12-20T10:27:42.211Z,1006.93
2018-12-20T10:28:42.218Z,1006.92
2018-12-20T10:29:41.728Z,1006.92
2018-12-20T10:30:42.328Z,1007.00
2018-12-20T10:31:41.408Z,1006.91
2018-12-20T10:32:42.210Z,1006.88
2018-12-20T10:33:42.212Z,1006.96
2018-12-20T10:34:42.248Z,1006.92
2018-12-20T10:35:42.221Z,1006.92
2018-12-20T10:36:42.219Z,1006.93
2018-12-20T10:37:41.452Z,1006.95
2018-12-20T10:38:42.222Z,1006.94
2018-12-20T10:39:41.739Z,1006.85
2018-12-20T10:40:41.305Z,1006.91
2018-12-20T10:41:42.290Z,1006.86
2018-12-20T10:42:42.210Z,1006.85
2018-12-20T10:43:41.415Z,1006.87
2018-12-20T10:44:42.249Z,1006.80
2018-12-20T10:45:42.283Z,1006.86
2018-12-20T10:46:41.305Z,1006.90
2018-12-20T10:47:42.211Z,1006.81
2018-12-20T10:48:42.227Z,1006.84
2018-12-20T10:49:41.816Z,1006.92
2018-12-20T10:50:41.834Z,1006.95
2018-12-20T10:51:41.725Z,1006.92
2018-12-20T10:52:41.172Z,1006.85
2018-12-20T10:53:41.756Z,1006.94
2018-12-20T10:54:41.758Z,1006.93
2018-12-20T10:55:41.710Z,1006.96
2018-12-20T10:56:41.714Z,1006.83
2018-12-20T10:57:41.711Z,1006.89
2018-12-20T10:58:41.748Z,1006.95
2018-12-20T10:59:41.246Z,1006.83
2018-12-20T11:00:41.732Z,1006.88
2018-12-20T11:01:41.717Z,1006.84
2018-12-20T11:02:41.711Z,1006.82
2018-12-20T11:03:41.796Z,1006.81
2018-12-20T11:04:41.245Z,1006.80
2018-12-20T11:05:41.719Z,1006.74
2018-12-20T11:06:41.733Z,1006.76
2018-12-20T11:07:41.048Z,1006.82
2018-12-20T11:08:41.779Z,1006.75
2018-12-20T11:09:41.237Z,1006.77
2018-12-20T11:10:41.744Z,1006.79
2018-12-20T11:11:41.714Z,1006.71
2018-12-20T11:12:41.717Z,1006.74
2018-12-20T11:13:41.825Z,1006.77
2018-12-20T11:14:40.962Z,1006.72
2018-12-20T11:15:41.727Z,1006.79
2018-12-20T11:16:40.911Z,1006.78
2018-12-20T11:17:41.712Z,1006.83
2018-12-20T11:18:41.714Z,1006.76
2018-12-20T11:19:41.233Z,1006.79
2018-12-20T11:20:40.980Z,1006.67
2018-12-20T11:21:40.867Z,1006.60
2018-12-20T11:22:40.840Z,1006.69
2018-12-20T11:23:41.704Z,1006.65
2018-12-20T11:24:41.733Z,1006.70
2018-12-20T11:25:41.718Z,1006.60
2018-12-20T11:26:41.881Z,1006.62
2018-12-20T11:27:41.710Z,1006.66
2018-12-20T11:28:40.888Z,1006.59
2018-12-20T11:29:41.745Z,1006.62
2018-12-20T11:30:40.820Z,1006.63
2018-12-20T11:31:41.724Z,1006.54
2018-12-20T11:32:41.744Z,1006.54
2018-12-20T11:33:41.714Z,1006.50
2018-12-20T11:34:41.246Z,1006.58
2018-12-20T11:35:41.242Z,1006.51
2018-12-20T11:36:43.309Z,1006.50
2018-12-20T11:37:40.751Z,1006.52
2018-12-20T11:38:41.227Z,1006.57
2018-12-20T11:39:41.240Z,1006.56
2018-12-20T11:40:41.457Z,1006.53
2018-12-20T11:41:41.247Z,1006.59
2018-12-20T11:42:41.216Z,1006.57
2018-12-20T11:43:41.244Z,1006.60
2018-12-20T11:44:41.234Z,1006.57
2018-12-20T11:45:41.214Z,1006.52
2018-12-20T11:46:41.225Z,1006.56
2018-12-20T11:47:45.916Z,1006.58
2018-12-20T11:48:41.221Z,1006.63
2018-12-20T11:49:41.266Z,1006.58
2018-12-20T11:50:41.266Z,1006.54
2018-12-20T11:51:41.216Z,1006.52
2018-12-20T11:52:42.490Z,1006.49
2018-12-20T11:53:41.232Z,1006.47
2018-12-20T11:54:41.235Z,1006.48
2018-12-20T11:55:41.222Z,1006.49
2018-12-20T11:56:41.209Z,1006.53
2018-12-20T11:57:40.627Z,1006.42
2018-12-20T11:58:41.354Z,1006.48
2018-12-20T11:59:40.457Z,1006.38
2018-12-20T12:00:40.434Z,1006.39
2018-12-20T12:01:41.215Z,1006.39
2018-12-20T12:02:41.216Z,1006.43
2018-12-20T12:03:40.553Z,1006.43
2018-12-20T12:04:41.346Z,1006.36
2018-12-20T12:05:40.734Z,1006.42